Time;durP1;ratioP1;P1;durP2;ratioP2;P2;SDS_P1;SDS_P2;PMS_P1;PMS_P2;Temp;Humidity;BMP_temperature;BMP_pressure;BME280_temperature;BME280_humidity;BME280_pressure;Samples;Min_cycle;Max_cycle;Signal;HPM_P1;HPM_P2
2023/01/07 00:00:47;;;;;;;2.93;1.43;;;13.00;99.90;;;;;;5055826;28;20217;-58
2023/01/07 00:03:15;;;;;;;1.37;1.13;;;13.10;99.90;;;;;;5055651;28;20241;-58
2023/01/07 00:05:42;;;;;;;1.73;1.20;;;13.10;99.90;;;;;;5055513;28;20725;-57
2023/01/07 00:08:08;;;;;;;1.83;1.10;;;13.00;99.90;;;;;;5055698;28;20635;-59
2023/01/07 00:10:37;;;;;;;1.70;1.10;;;13.00;99.90;;;;;;5055619;28;20205;-58
2023/01/07 00:13:03;;;;;;;1.77;1.00;;;13.00;99.90;;;;;;5055708;28;20254;-58
2023/01/07 00:15:30;;;;;;;1.13;1.03;;;13.00;99.90;;;;;;5055585;28;20713;-58
2023/01/07 00:17:57;;;;;;;1.47;1.30;;;13.10;99.90;;;;;;5055817;28;20205;-60
2023/01/07 00:20:23;;;;;;;2.30;1.43;;;13.10;99.90;;;;;;5055484;28;20210;-58
2023/01/07 00:22:50;;;;;;;2.03;1.50;;;13.10;99.90;;;;;;5055656;28;20221;-58
2023/01/07 00:25:17;;;;;;;3.20;1.70;;;13.10;99.90;;;;;;5055199;28;20260;-58
2023/01/07 00:27:45;;;;;;;2.53;1.77;;;13.10;99.90;;;;;;5055812;28;20206;-58
2023/01/07 00:30:13;;;;;;;1.37;1.23;;;13.10;99.90;;;;;;5056215;28;20209;-58
2023/01/07 00:33:03;;;;;;;1.93;1.50;;;13.00;99.90;;;;;;5056084;28;20205;-58
2023/01/07 00:35:30;;;;;;;2.23;1.37;;;12.90;99.90;;;;;;5056883;28;20665;-58
2023/01/07 00:37:57;;;;;;;1.90;1.40;;;12.90;99.90;;;;;;5057762;28;20212;-58
2023/01/07 00:40:24;;;;;;;1.90;1.50;;;12.90;99.90;;;;;;5057226;28;20214;-58
2023/01/07 00:43:00;;;;;;;2.90;1.80;;;12.80;99.90;;;;;;5057267;28;20225;-58
2023/01/07 00:45:28;;;;;;;1.90;1.37;;;12.70;99.90;;;;;;5056543;28;20716;-58
2023/01/07 00:47:54;;;;;;;12.97;5.67;;;12.60;99.90;;;;;;5056682;28;20208;-58
2023/01/07 00:50:22;;;;;;;5.57;3.60;;;12.60;99.90;;;;;;5055990;28;20213;-57
2023/01/07 00:52:48;;;;;;;4.33;2.90;;;12.60;99.90;;;;;;5055670;28;20672;-58
2023/01/07 00:55:15;;;;;;;3.83;2.10;;;12.60;99.90;;;;;;5054933;28;20241;-58
2023/01/07 00:57:43;;;;;;;2.47;2.13;;;12.60;99.90;;;;;;5055396;28;20236;-58
2023/01/07 01:00:14;;;;;;;2.80;2.20;;;12.60;99.90;;;;;;5056214;28;20205;-58
2023/01/07 01:02:41;;;;;;;2.97;2.40;;;12.60;99.90;;;;;;5055569;28;20229;-58
2023/01/07 01:05:08;;;;;;;4.33;2.40;;;12.60;99.90;;;;;;5055835;28;20606;-58
2023/01/07 01:07:35;;;;;;;2.67;2.20;;;12.60;99.90;;;;;;5056294;28;20236;-58
2023/01/07 01:10:03;;;;;;;2.40;2.10;;;12.60;99.90;;;;;;5055997;28;20205;-59
2023/01/07 01:12:30;;;;;;;2.10;1.90;;;12.60;99.90;;;;;;5055733;28;20209;-58
2023/01/07 01:14:57;;;;;;;2.77;2.03;;;12.60;99.90;;;;;;5055280;28;20232;-58
2023/01/07 01:17:25;;;;;;;3.67;1.70;;;12.60;99.90;;;;;;5055509;28;20216;-58
2023/01/07 01:19:52;;;;;;;2.50;1.50;;;12.60;99.90;;;;;;5056470;28;20218;-58
2023/01/07 01:22:18;;;;;;;1.47;1.23;;;12.60;99.90;;;;;;5055510;28;20221;-58
2023/01/07 01:24:45;;;;;;;2.27;1.80;;;12.50;99.90;;;;;;5055655;28;20222;-58
2023/01/07 01:27:12;;;;;;;2.87;2.00;;;12.40;99.90;;;;;;5055536;28;20201;-58
2023/01/07 01:29:38;;;;;;;3.07;2.00;;;12.20;99.90;;;;;;5055702;28;20209;-58
2023/01/07 01:32:05;;;;;;;2.60;1.90;;;12.20;99.90;;;;;;5055826;28;20202;-58
2023/01/07 01:34:33;;;;;;;2.80;2.00;;;12.30;99.90;;;;;;5055815;28;20237;-57
2023/01/07 01:37:00;;;;;;;3.80;2.30;;;12.40;99.90;;;;;;5055909;28;20210;-58
2023/01/07 01:39:27;;;;;;;3.43;2.23;;;12.40;99.90;;;;;;5056121;28;20206;-58
2023/01/07 01:41:54;;;;;;;2.70;1.97;;;12.40;99.90;;;;;;5053710;28;20586;-58
2023/01/07 01:44:35;;;;;;;3.13;2.43;;;12.40;99.90;;;;;;5054630;28;20238;-59
2023/01/07 01:47:05;;;;;;;2.80;2.20;;;12.40;99.90;;;;;;5055726;28;20263;-59
2023/01/07 01:49:38;;;;;;;2.40;1.80;;;12.40;99.90;;;;;;5055748;28;20211;-59
2023/01/07 01:52:09;;;;;;;4.03;2.43;;;12.40;99.90;;;;;;5055995;28;20214;-58
2023/01/07 01:54:36;;;;;;;4.33;2.70;;;12.40;99.90;;;;;;5055406;28;20229;-59
2023/01/07 01:57:06;;;;;;;4.13;2.30;;;12.40;99.90;;;;;;5055160;28;20300;-59
2023/01/07 01:59:37;;;;;;;3.13;2.17;;;12.40;99.90;;;;;;5055250;28;20210;-58
2023/01/07 02:02:06;;;;;;;3.07;1.97;;;12.40;99.90;;;;;;5056238;28;20211;-59
2023/01/07 02:04:34;;;;;;;2.77;2.00;;;12.40;99.90;;;;;;5055505;28;20229;-57
2023/01/07 02:07:07;;;;;;;3.80;2.30;;;12.30;99.90;;;;;;5055500;28;20212;-57
2023/01/07 02:09:34;;;;;;;2.63;2.10;;;12.30;99.90;;;;;;5056404;28;20672;-59
2023/01/07 02:12:13;;;;;;;3.43;1.70;;;12.20;99.90;;;;;;5056449;28;20218;-58
2023/01/07 02:14:55;;;;;;;5.50;1.67;;;12.20;99.90;;;;;;5055384;28;20510;-58
2023/01/07 02:17:35;;;;;;;3.33;1.67;;;12.10;99.90;;;;;;5055431;28;20205;-58
2023/01/07 02:20:25;;;;;;;2.93;2.10;;;12.00;99.90;;;;;;5054904;28;20205;-57
2023/01/07 02:23:21;;;;;;;3.17;1.70;;;11.90;99.90;;;;;;5054191;28;20232;-56
2023/01/07 02:26:14;;;;;;;3.40;2.00;;;11.90;99.90;;;;;;5053942;28;20218;-58
2023/01/07 02:29:22;;;;;;;2.10;1.80;;;11.90;99.90;;;;;;5053997;28;20212;-57
2023/01/07 02:32:19;;;;;;;1.90;1.47;;;11.90;99.90;;;;;;5053964;28;20209;-57
2023/01/07 02:34:58;;;;;;;2.80;1.70;;;11.80;99.90;;;;;;5053334;28;20229;-57
2023/01/07 02:37:31;;;;;;;2.27;1.70;;;11.80;99.90;;;;;;5053937;28;20200;-57
2023/01/07 02:40:04;;;;;;;1.40;1.30;;;11.70;99.90;;;;;;5053607;28;20209;-58
2023/01/07 02:42:41;;;;;;;2.50;1.73;;;11.70;99.90;;;;;;5053591;28;20221;-57
2023/01/07 02:45:16;;;;;;;2.00;1.80;;;11.70;99.90;;;;;;5053084;28;20295;-58
2023/01/07 02:47:50;;;;;;;3.30;1.77;;;11.70;99.90;;;;;;5054144;28;20211;-57
2023/01/07 02:50:17;;;;;;;3.50;1.70;;;11.70;99.90;;;;;;5054346;28;20205;-57
2023/01/07 02:52:43;;;;;;;2.60;1.90;;;11.70;99.90;;;;;;5053872;28;20212;-58
2023/01/07 02:55:15;;;;;;;2.17;1.80;;;11.60;99.90;;;;;;5053944;28;20226;-58
2023/01/07 02:58:22;;;;;;;3.10;1.87;;;11.60;99.90;;;;;;5054536;28;20216;-58
2023/01/07 03:01:28;;;;;;;2.23;1.80;;;11.60;99.90;;;;;;5054847;28;20210;-58
2023/01/07 03:04:14;;;;;;;1.90;1.70;;;11.60;99.90;;;;;;5053793;28;20304;-58
2023/01/07 03:06:56;;;;;;;2.40;1.90;;;11.60;99.90;;;;;;5054243;28;20267;-58
2023/01/07 03:09:29;;;;;;;2.30;1.80;;;11.60;99.90;;;;;;5054413;28;20212;-58
2023/01/07 03:12:05;;;;;;;2.53;1.80;;;11.60;99.90;;;;;;5054287;28;20263;-58
2023/01/07 03:14:38;;;;;;;2.30;2.03;;;11.60;99.90;;;;;;5053774;28;20241;-58
2023/01/07 03:17:09;;;;;;;3.37;2.60;;;11.60;99.90;;;;;;5054327;28;20209;-58
2023/01/07 03:19:41;;;;;;;3.20;2.30;;;11.60;99.90;;;;;;5055398;28;20209;-57
2023/01/07 03:22:10;;;;;;;2.40;2.10;;;11.70;99.90;;;;;;5058469;28;20241;-58
2023/01/07 03:24:38;;;;;;;2.87;2.00;;;11.70;99.90;;;;;;5058515;28;20229;-58
2023/01/07 03:27:08;;;;;;;2.60;2.13;;;11.70;99.90;;;;;;5058083;28;20587;-58
2023/01/07 03:29:35;;;;;;;3.83;2.10;;;11.70;99.90;;;;;;5059026;28;20263;-58
2023/01/07 03:32:07;;;;;;;3.53;2.07;;;11.70;99.90;;;;;;5058631;28;20283;-58
2023/01/07 03:34:35;;;;;;;3.17;1.83;;;11.60;99.90;;;;;;5057993;28;20221;-57
2023/01/07 03:37:07;;;;;;;2.57;2.17;;;11.50;99.90;;;;;;5058672;28;20578;-57
2023/01/07 03:39:38;;;;;;;2.77;2.00;;;11.50;99.90;;;;;;5059070;28;20296;-57
2023/01/07 03:44:50;;;;;;;2.67;2.00;;;11.60;99.90;;;;;;5057991;28;20388;-57
2023/01/07 03:47:18;;;;;;;2.60;2.00;;;11.60;99.90;;;;;;5058468;28;20215;-58
2023/01/07 03:49:45;;;;;;;2.23;1.80;;;11.60;99.90;;;;;;5058791;28;20209;-58
2023/01/07 03:52:13;;;;;;;2.67;2.20;;;11.70;99.90;;;;;;5059562;28;20205;-58
2023/01/07 03:54:40;;;;;;;3.27;2.17;;;11.70;99.90;;;;;;5059380;28;20221;-57
2023/01/07 03:57:07;;;;;;;2.83;1.90;;;11.70;99.90;;;;;;5059557;28;20273;-57
2023/01/07 03:59:33;;;;;;;2.60;2.03;;;11.80;99.90;;;;;;5059848;28;20198;-59
2023/01/07 04:02:00;;;;;;;5.03;2.40;;;11.70;99.90;;;;;;5058894;28;20209;-58
2023/01/07 04:04:27;;;;;;;2.93;1.77;;;11.80;99.90;;;;;;5060009;28;20241;-57
2023/01/07 04:06:54;;;;;;;4.10;2.07;;;11.70;99.90;;;;;;5061063;28;20220;-58
2023/01/07 04:09:22;;;;;;;3.37;1.80;;;11.70;99.90;;;;;;5061192;28;20580;-58
2023/01/07 04:11:52;;;;;;;2.83;2.03;;;11.70;99.90;;;;;;5062299;28;20208;-59
2023/01/07 04:14:19;;;;;;;4.53;2.07;;;11.70;99.90;;;;;;5061466;28;20233;-58
2023/01/07 04:16:45;;;;;;;2.03;1.83;;;11.40;99.90;;;;;;5062265;28;20209;-58
2023/01/07 04:19:12;;;;;;;1.93;1.47;;;11.30;99.90;;;;;;5062618;28;20205;-58
2023/01/07 04:21:39;;;;;;;3.97;1.80;;;11.30;99.90;;;;;;5062547;28;20209;-58
2023/01/07 04:24:06;;;;;;;2.60;1.70;;;11.40;99.90;;;;;;5063009;28;20245;-58
2023/01/07 04:26:34;;;;;;;2.57;1.73;;;11.30;99.90;;;;;;5063538;28;20213;-58
2023/01/07 04:29:01;;;;;;;4.03;1.80;;;11.30;99.90;;;;;;5063209;28;20206;-58
2023/01/07 04:31:28;;;;;;;2.03;1.83;;;11.40;99.90;;;;;;5061982;28;20221;-59
2023/01/07 04:33:55;;;;;;;2.70;2.00;;;11.40;99.90;;;;;;5061905;28;20237;-58
2023/01/07 04:36:21;;;;;;;3.43;2.00;;;11.40;99.90;;;;;;5061528;28;20259;-57
2023/01/07 04:38:48;;;;;;;2.20;1.90;;;11.40;99.90;;;;;;5062195;28;20212;-58
2023/01/07 04:41:15;;;;;;;2.40;2.03;;;11.50;99.90;;;;;;5061962;28;20213;-58
2023/01/07 04:43:43;;;;;;;2.17;1.83;;;11.40;99.90;;;;;;5061929;28;20245;-58
2023/01/07 04:46:10;;;;;;;2.67;1.73;;;11.30;99.90;;;;;;5062763;28;20205;-59
2023/01/07 04:48:36;;;;;;;3.27;1.87;;;11.30;99.90;;;;;;5062696;28;20213;-58
2023/01/07 04:51:03;;;;;;;3.20;1.80;;;11.30;99.90;;;;;;5061833;28;20202;-60
2023/01/07 04:53:30;;;;;;;2.53;2.13;;;11.30;99.90;;;;;;5062791;28;20201;-58
2023/01/07 04:55:57;;;;;;;1.90;1.70;;;11.30;99.90;;;;;;5060771;28;20217;-58
2023/01/07 04:58:24;;;;;;;2.83;1.80;;;11.20;99.90;;;;;;5058083;28;20209;-58
2023/01/07 05:00:55;;;;;;;3.27;1.97;;;11.20;99.90;;;;;;5057452;28;20201;-58
2023/01/07 05:03:22;;;;;;;2.10;1.90;;;11.20;99.90;;;;;;5055970;28;20217;-58
2023/01/07 05:05:48;;;;;;;2.57;2.20;;;11.20;99.90;;;;;;5056040;28;20217;-58
2023/01/07 05:08:15;;;;;;;2.97;1.83;;;11.30;99.90;;;;;;5055955;28;20670;-59
2023/01/07 05:10:42;;;;;;;2.30;2.00;;;11.30;99.90;;;;;;5057582;28;20213;-59
2023/01/07 05:13:15;;;;;;;1.80;1.70;;;11.40;99.90;;;;;;5056049;28;20232;-62
2023/01/07 05:15:41;;;;;;;3.20;1.93;;;11.40;99.90;;;;;;5055837;28;20224;-59
2023/01/07 05:18:09;;;;;;;3.93;2.23;;;11.40;99.90;;;;;;5055803;28;20214;-58
2023/01/07 05:20:36;;;;;;;2.97;2.30;;;11.40;99.90;;;;;;5058276;28;20209;-58
2023/01/07 05:23:04;;;;;;;3.80;2.53;;;11.40;99.90;;;;;;5057288;28;20208;-59
2023/01/07 05:25:31;;;;;;;3.30;2.63;;;11.40;99.90;;;;;;5056467;28;20713;-59
2023/01/07 05:27:58;;;;;;;3.70;2.57;;;11.40;99.90;;;;;;5056848;28;20212;-58
2023/01/07 05:30:25;;;;;;;3.37;2.57;;;11.40;99.90;;;;;;5057592;28;20202;-59
2023/01/07 05:32:52;;;;;;;3.07;2.57;;;11.30;99.90;;;;;;5057019;28;20207;-59
2023/01/07 05:35:20;;;;;;;3.60;2.40;;;11.40;99.90;;;;;;5056508;28;20228;-58
2023/01/07 05:37:47;;;;;;;2.77;2.43;;;11.30;99.90;;;;;;5056209;28;20202;-58
2023/01/07 05:40:14;;;;;;;3.67;2.47;;;11.40;99.90;;;;;;5056377;28;20218;-58
2023/01/07 05:42:40;;;;;;;5.90;3.07;;;11.40;99.90;;;;;;5055433;28;20237;-58
2023/01/07 05:45:08;;;;;;;3.73;2.90;;;11.30;99.90;;;;;;5055138;28;20229;-58
2023/01/07 05:47:35;;;;;;;4.53;2.70;;;11.40;99.90;;;;;;5055182;28;20202;-58
2023/01/07 05:50:02;;;;;;;3.73;2.60;;;11.40;99.90;;;;;;5055082;28;20202;-58
2023/01/07 05:52:30;;;;;;;2.90;2.40;;;11.40;99.90;;;;;;5055583;28;20208;-61
2023/01/07 05:54:56;;;;;;;3.90;2.67;;;11.50;99.90;;;;;;5055186;28;20237;-58
2023/01/07 05:57:23;;;;;;;4.50;2.70;;;11.50;99.90;;;;;;5055024;28;20205;-58
2023/01/07 05:59:50;;;;;;;4.10;2.50;;;11.50;99.90;;;;;;5055743;28;20218;-58
2023/01/07 06:02:17;;;;;;;2.10;1.90;;;11.50;99.90;;;;;;5055123;28;20209;-59
2023/01/07 06:04:43;;;;;;;3.10;2.13;;;11.50;99.90;;;;;;5054645;28;20237;-58
2023/01/07 06:07:10;;;;;;;2.70;2.07;;;11.50;99.90;;;;;;5055022;28;20201;-58
2023/01/07 06:09:38;;;;;;;3.03;2.73;;;11.50;99.90;;;;;;5054701;28;20210;-58
2023/01/07 06:12:05;;;;;;;3.53;1.90;;;11.50;99.90;;;;;;5054823;28;20209;-58
2023/01/07 06:14:32;;;;;;;3.10;2.33;;;11.50;99.90;;;;;;5055136;28;20225;-58
2023/01/07 06:16:59;;;;;;;2.50;2.10;;;11.40;99.90;;;;;;5056145;28;20200;-59
2023/01/07 06:19:26;;;;;;;2.50;2.20;;;11.40;99.90;;;;;;5055995;28;20209;-58
2023/01/07 06:21:53;;;;;;;3.40;2.10;;;11.50;99.90;;;;;;5055993;28;20210;-58
2023/01/07 06:24:19;;;;;;;3.73;2.10;;;11.50;99.90;;;;;;5057540;28;20320;-59
2023/01/07 06:26:48;;;;;;;2.90;2.33;;;11.40;99.90;;;;;;5057493;28;20205;-58
2023/01/07 06:29:14;;;;;;;4.13;3.00;;;11.40;99.90;;;;;;5057574;28;20232;-58
2023/01/07 06:31:41;;;;;;;3.03;2.40;;;11.40;99.90;;;;;;5056327;28;20216;-58
2023/01/07 06:34:08;;;;;;;2.83;2.43;;;11.40;99.90;;;;;;5056296;28;20226;-58
2023/01/07 06:36:35;;;;;;;2.63;2.10;;;11.50;99.90;;;;;;5057296;28;20205;-58
2023/01/07 06:39:03;;;;;;;3.30;2.47;;;11.50;99.90;;;;;;5057798;28;20226;-58
2023/01/07 06:41:30;;;;;;;1.83;1.57;;;11.50;99.90;;;;;;5058870;28;20206;-58
2023/01/07 06:43:58;;;;;;;2.77;2.37;;;11.60;99.90;;;;;;5056879;28;20233;-58
2023/01/07 06:46:25;;;;;;;1.50;1.30;;;11.60;99.90;;;;;;5056824;28;20197;-59
2023/01/07 06:48:52;;;;;;;3.03;2.20;;;11.60;99.90;;;;;;5057573;28;20201;-58
2023/01/07 06:51:19;;;;;;;2.17;1.10;;;11.60;99.90;;;;;;5056704;28;20227;-57
2023/01/07 06:53:45;;;;;;;1.33;1.23;;;11.70;99.90;;;;;;5056200;28;20217;-58
2023/01/07 06:56:12;;;;;;;2.83;1.60;;;11.70;99.90;;;;;;5060399;28;20205;-58
2023/01/07 06:58:39;;;;;;;3.63;2.20;;;11.80;99.90;;;;;;5060568;28;20293;-58
2023/01/07 07:01:08;;;;;;;2.17;1.50;;;11.80;99.90;;;;;;5060209;28;20223;-58
2023/01/07 07:03:35;;;;;;;2.20;1.57;;;11.80;99.90;;;;;;5060210;28;20314;-58
2023/01/07 07:06:02;;;;;;;2.13;1.70;;;11.90;99.90;;;;;;5060450;28;20209;-58
2023/01/07 07:08:29;;;;;;;2.03;1.80;;;11.90;99.90;;;;;;5060850;28;20209;-57
2023/01/07 07:10:56;;;;;;;2.47;2.00;;;12.00;99.90;;;;;;5060901;28;20220;-59
2023/01/07 07:13:22;;;;;;;2.30;1.80;;;12.00;99.90;;;;;;5059805;28;20209;-58
2023/01/07 07:15:49;;;;;;;2.17;1.73;;;12.10;99.90;;;;;;5059383;28;20212;-58
2023/01/07 07:18:18;;;;;;;7.67;4.23;;;12.10;99.90;;;;;;5060212;28;20213;-59
2023/01/07 07:20:46;;;;;;;2.80;1.87;;;12.10;99.90;;;;;;5059937;28;20241;-58
2023/01/07 07:23:13;;;;;;;3.30;2.40;;;12.10;99.90;;;;;;5059469;28;20206;-58
2023/01/07 07:25:40;;;;;;;1.20;1.10;;;12.10;99.90;;;;;;5059003;28;20234;-58
2023/01/07 07:28:07;;;;;;;3.07;1.80;;;12.10;99.90;;;;;;5059087;28;20592;-58
2023/01/07 07:30:34;;;;;;;2.77;2.20;;;12.20;99.90;;;;;;5057515;28;20229;-58
2023/01/07 07:33:02;;;;;;;3.30;2.43;;;12.20;99.90;;;;;;5057908;28;20209;-58
2023/01/07 07:35:31;;;;;;;4.70;3.23;;;12.20;99.90;;;;;;5057565;28;20225;-58
2023/01/07 07:37:58;;;;;;;4.93;2.67;;;12.20;99.90;;;;;;5057636;28;20224;-58
2023/01/07 07:40:25;;;;;;;2.37;2.03;;;12.20;99.90;;;;;;5057516;28;20209;-58
2023/01/07 07:42:52;;;;;;;6.00;3.43;;;12.20;99.90;;;;;;5057942;28;20698;-58
2023/01/07 07:45:19;;;;;;;3.27;2.23;;;12.30;99.90;;;;;;5057639;28;20237;-58
2023/01/07 07:47:46;;;;;;;1.60;1.40;;;12.30;99.90;;;;;;5058213;28;20212;-58
2023/01/07 07:50:13;;;;;;;2.93;2.10;;;12.40;99.90;;;;;;5057792;28;20200;-59
2023/01/07 07:52:41;;;;;;;17.00;15.20;;;12.30;99.90;;;;;;5057912;28;20212;-58
2023/01/07 07:55:08;;;;;;;9.80;8.07;;;12.30;99.90;;;;;;5057017;28;20419;-58
2023/01/07 07:57:35;;;;;;;7.00;4.60;;;12.30;99.90;;;;;;5056938;28;20216;-59
2023/01/07 08:00:02;;;;;;;4.37;2.70;;;12.40;99.90;;;;;;5057887;28;20205;-58
2023/01/07 08:02:29;;;;;;;16.57;12.33;;;12.40;99.90;;;;;;5057292;28;20665;-58
2023/01/07 08:04:56;;;;;;;4.53;3.43;;;12.50;99.90;;;;;;5056665;28;20234;-58
2023/01/07 08:07:23;;;;;;;2.30;2.03;;;12.50;99.90;;;;;;5057365;28;20216;-58
2023/01/07 08:09:51;;;;;;;1.57;1.40;;;12.60;99.90;;;;;;5057452;28;20209;-60
2023/01/07 08:12:18;;;;;;;3.93;2.80;;;12.60;99.90;;;;;;5057381;28;20333;-60
2023/01/07 08:14:45;;;;;;;3.00;2.67;;;12.60;99.90;;;;;;5057000;28;20232;-60
2023/01/07 08:17:11;;;;;;;2.73;2.10;;;12.50;99.90;;;;;;5058371;28;20205;-60
2023/01/07 08:19:38;;;;;;;2.60;1.63;;;12.50;99.90;;;;;;5058056;28;20213;-60
2023/01/07 08:22:05;;;;;;;2.83;1.57;;;12.60;99.90;;;;;;5057983;28;20205;-60
2023/01/07 08:24:32;;;;;;;1.67;1.30;;;12.80;99.90;;;;;;5057252;28;20317;-60
2023/01/07 08:27:00;;;;;;;1.67;1.23;;;13.10;99.90;;;;;;5057437;28;20217;-60
2023/01/07 08:29:26;;;;;;;1.20;1.03;;;13.30;99.90;;;;;;5057063;28;20206;-60
2023/01/07 08:31:53;;;;;;;1.50;1.33;;;13.30;99.90;;;;;;5056520;28;20736;-60
2023/01/07 08:34:20;;;;;;;2.10;1.70;;;13.40;99.90;;;;;;5057109;28;20222;-60
2023/01/07 08:36:47;;;;;;;1.77;1.50;;;13.40;99.90;;;;;;5056788;28;20206;-59
2023/01/07 08:39:14;;;;;;;4.80;3.10;;;13.30;99.90;;;;;;5056990;28;20220;-60
2023/01/07 08:41:40;;;;;;;12.27;7.27;;;13.40;99.90;;;;;;5057381;28;20209;-60
2023/01/07 08:44:09;;;;;;;2.47;2.00;;;13.30;99.90;;;;;;5056240;28;20237;-59
2023/01/07 08:46:36;;;;;;;1.70;1.30;;;13.40;99.90;;;;;;5057059;28;20231;-62
2023/01/07 08:49:03;;;;;;;1.07;0.90;;;13.40;99.90;;;;;;5055580;28;20591;-60
2023/01/07 08:51:30;;;;;;;3.30;1.27;;;13.40;99.90;;;;;;5055598;28;20210;-59
2023/01/07 08:53:57;;;;;;;1.10;1.00;;;13.40;99.90;;;;;;5055580;28;20314;-64
2023/01/07 08:56:24;;;;;;;1.23;1.00;;;13.50;99.90;;;;;;5054862;28;20682;-63
2023/01/07 08:58:50;;;;;;;1.17;0.87;;;13.50;99.90;;;;;;5055111;28;20217;-60
2023/01/07 09:01:19;;;;;;;9.07;6.20;;;13.50;99.90;;;;;;5055116;28;20205;-65
2023/01/07 09:03:46;;;;;;;3.03;2.30;;;13.50;99.90;;;;;;5054743;28;20229;-58
2023/01/07 09:06:12;;;;;;;19.90;12.63;;;13.40;99.90;;;;;;5054389;28;20662;-66
2023/01/07 09:08:39;;;;;;;1.50;1.40;;;13.50;99.90;;;;;;5052227;28;20221;-62
2023/01/07 09:11:06;;;;;;;1.70;1.40;;;13.50;99.90;;;;;;5070125;28;20208;-58
2023/01/07 09:13:33;;;;;;;1.50;1.27;;;13.50;99.90;;;;;;5073706;28;20209;-61
2023/01/07 09:16:00;;;;;;;1.50;1.40;;;13.50;99.90;;;;;;5074244;28;20201;-61
2023/01/07 09:18:28;;;;;;;1.73;1.10;;;13.50;99.90;;;;;;5072228;28;20201;-58
2023/01/07 09:20:55;;;;;;;1.70;1.10;;;13.50;99.90;;;;;;5074129;28;20216;-57
2023/01/07 09:23:22;;;;;;;1.20;1.10;;;13.60;99.90;;;;;;5073872;28;20209;-66
2023/01/07 09:25:48;;;;;;;1.83;1.50;;;13.60;99.90;;;;;;5074407;28;20391;-58
2023/01/07 09:28:15;;;;;;;1.30;1.20;;;13.60;99.90;;;;;;5074950;28;20209;-64
2023/01/07 09:30:42;;;;;;;2.03;1.00;;;13.60;99.90;;;;;;5074242;28;20615;-63
2023/01/07 09:33:09;;;;;;;1.40;1.07;;;13.70;99.90;;;;;;5073622;28;20209;-63
2023/01/07 09:35:37;;;;;;;1.60;1.10;;;13.70;99.90;;;;;;5074424;28;20728;-60
2023/01/07 09:38:04;;;;;;;1.87;1.20;;;13.80;99.90;;;;;;5073966;28;20738;-64
2023/01/07 09:40:36;;;;;;;2.30;2.07;;;13.90;99.90;;;;;;5073767;28;20287;-57
2023/01/07 09:43:07;;;;;;;3.13;2.43;;;14.00;99.90;;;;;;5072874;28;20216;-57
2023/01/07 09:45:37;;;;;;;1.47;1.37;;;14.10;99.90;;;;;;5072604;28;20318;-57
2023/01/07 09:48:14;;;;;;;1.20;1.07;;;14.10;99.90;;;;;;5072559;28;20646;-58
2023/01/07 09:50:49;;;;;;;1.97;1.33;;;14.20;99.90;;;;;;5072223;28;20594;-58
2023/01/07 09:53:21;;;;;;;3.43;2.63;;;14.20;99.90;;;;;;5072661;28;20205;-57
2023/01/07 09:55:51;;;;;;;2.40;2.20;;;14.30;99.90;;;;;;5072886;28;20716;-57
2023/01/07 09:58:20;;;;;;;2.13;1.93;;;14.40;99.90;;;;;;5072415;28;20205;-58
2023/01/07 10:00:57;;;;;;;2.90;1.50;;;14.40;99.90;;;;;;5072329;28;20672;-56
2023/01/07 10:03:42;;;;;;;2.27;1.63;;;14.50;99.90;;;;;;5072249;28;20213;-57
2023/01/07 10:06:16;;;;;;;2.43;1.87;;;14.50;99.90;;;;;;5072424;28;20311;-60
2023/01/07 10:08:58;;;;;;;2.00;1.80;;;14.60;99.90;;;;;;5074141;28;20209;-60
2023/01/07 10:11:35;;;;;;;1.80;1.70;;;14.50;99.90;;;;;;5072691;28;20312;-61
2023/01/07 10:14:21;;;;;;;1.93;1.63;;;14.60;99.90;;;;;;5071956;28;20228;-59
2023/01/07 10:16:56;;;;;;;3.77;1.90;;;14.50;99.90;;;;;;5072134;28;20224;-57
2023/01/07 10:19:33;;;;;;;2.57;2.10;;;14.50;99.90;;;;;;5071901;28;20237;-59
2023/01/07 10:22:04;;;;;;;3.20;2.23;;;14.50;99.90;;;;;;5071952;28;20224;-57
2023/01/07 10:24:38;;;;;;;2.20;2.00;;;14.50;99.90;;;;;;5071299;28;20705;-57
2023/01/07 10:27:10;;;;;;;2.67;2.20;;;14.30;99.90;;;;;;5071985;28;20258;-57
2023/01/07 10:29:42;;;;;;;2.47;2.20;;;14.20;99.90;;;;;;5071519;28;20212;-57
2023/01/07 10:32:14;;;;;;;3.50;2.33;;;14.20;99.90;;;;;;5072033;28;20212;-58
2023/01/07 10:34:46;;;;;;;3.83;2.40;;;14.20;99.90;;;;;;5071634;28;20235;-58
2023/01/07 10:37:22;;;;;;;2.80;2.57;;;14.20;99.90;;;;;;5071260;28;20866;-58
2023/01/07 10:39:58;;;;;;;2.40;2.20;;;14.20;99.90;;;;;;5071422;28;20297;-57
2023/01/07 10:42:32;;;;;;;3.47;2.70;;;14.20;99.90;;;;;;5071381;28;20273;-58
2023/01/07 10:45:30;;;;;;;2.83;2.63;;;14.20;99.90;;;;;;5070889;28;20244;-58
2023/01/07 10:48:15;;;;;;;5.50;4.90;;;14.10;99.90;;;;;;5067679;28;20208;-58
2023/01/07 10:50:54;;;;;;;3.33;2.70;;;14.00;99.90;;;;;;5071043;28;20321;-57
2023/01/07 10:53:32;;;;;;;3.20;2.90;;;14.00;99.90;;;;;;5071436;28;20231;-57
2023/01/07 10:56:07;;;;;;;3.93;3.00;;;14.00;99.90;;;;;;5070985;28;20208;-62
2023/01/07 10:58:40;;;;;;;3.70;3.10;;;14.00;99.90;;;;;;5071801;28;20212;-62
2023/01/07 11:01:08;;;;;;;2.70;2.50;;;13.90;99.90;;;;;;5071744;28;20274;-60
2023/01/07 11:03:37;;;;;;;3.27;2.50;;;13.90;99.90;;;;;;5071341;28;20635;-60
2023/01/07 11:06:11;;;;;;;3.97;3.03;;;14.10;99.90;;;;;;5070951;28;20704;-60
2023/01/07 11:08:42;;;;;;;9.87;7.13;;;14.20;99.90;;;;;;5071369;28;20238;-60
2023/01/07 11:11:15;;;;;;;4.77;2.97;;;14.10;99.90;;;;;;5071678;28;20236;-59
2023/01/07 11:13:49;;;;;;;3.80;3.13;;;14.10;99.90;;;;;;5071060;28;20233;-59
2023/01/07 11:16:23;;;;;;;4.20;3.20;;;14.20;99.90;;;;;;5070768;28;20300;-59
2023/01/07 11:18:57;;;;;;;3.50;3.20;;;14.40;99.90;;;;;;5071311;28;20217;-60
2023/01/07 11:21:35;;;;;;;3.30;3.00;;;14.40;99.90;;;;;;5071646;28;20209;-59
2023/01/07 11:24:29;;;;;;;3.83;2.90;;;14.30;99.90;;;;;;5072365;28;20224;-61
2023/01/07 11:27:02;;;;;;;3.40;3.10;;;14.20;99.90;;;;;;5072010;28;20229;-61
2023/01/07 11:29:35;;;;;;;4.50;2.90;;;14.20;99.90;;;;;;5072007;28;20197;-61
2023/01/07 11:32:04;;;;;;;3.57;2.77;;;14.10;99.90;;;;;;5071718;28;20213;-60
2023/01/07 11:34:34;;;;;;;3.40;3.10;;;14.10;99.90;;;;;;5071206;28;20282;-61
2023/01/07 11:37:02;;;;;;;3.53;2.90;;;13.90;99.90;;;;;;5071277;28;20207;-60
2023/01/07 11:39:32;;;;;;;3.30;3.00;;;13.90;99.90;;;;;;5071230;28;20688;-59
2023/01/07 11:42:37;;;;;;;4.33;3.63;;;14.00;99.90;;;;;;5074264;28;20207;-59
2023/01/07 11:44:47;;;;;;;3.30;2.70;;;14.00;99.90;;;;;;5073931;28;20236;-59
2023/01/07 11:47:15;;;;;;;3.30;3.00;;;14.00;99.90;;;;;;5074377;28;20225;-61
2023/01/07 11:49:45;;;;;;;3.47;3.17;;;14.00;99.90;;;;;;5074559;28;20208;-60
2023/01/07 11:52:18;;;;;;;4.17;3.30;;;14.10;99.90;;;;;;5074605;28;20216;-59
2023/01/07 11:54:50;;;;;;;3.30;2.87;;;14.10;99.90;;;;;;5074646;28;20217;-60
2023/01/07 11:57:24;;;;;;;3.67;2.87;;;14.00;99.90;;;;;;5074548;28;20243;-60
2023/01/07 12:00:05;;;;;;;3.53;3.23;;;13.90;99.90;;;;;;5074241;28;20205;-60
2023/01/07 12:02:32;;;;;;;3.20;2.70;;;13.80;99.90;;;;;;5074739;28;20236;-60
2023/01/07 12:05:18;;;;;;;3.37;2.93;;;13.80;99.90;;;;;;5074655;28;20224;-57
2023/01/07 12:07:46;;;;;;;2.77;2.57;;;13.80;99.90;;;;;;5075783;28;20691;-56
2023/01/07 12:10:27;;;;;;;3.53;3.20;;;13.90;99.90;;;;;;5075999;28;20212;-59
2023/01/07 12:12:54;;;;;;;3.90;3.40;;;13.90;99.90;;;;;;5076042;28;20209;-62
2023/01/07 12:15:25;;;;;;;5.33;2.93;;;13.90;99.90;;;;;;5075438;28;20229;-56
2023/01/07 12:18:10;;;;;;;3.20;2.90;;;13.90;99.90;;;;;;5075611;28;20209;-56
2023/01/07 12:20:51;;;;;;;3.80;2.73;;;13.90;99.90;;;;;;5075239;28;20204;-55
2023/01/07 12:23:30;;;;;;;3.67;2.60;;;13.90;99.90;;;;;;5075288;28;20209;-55
2023/01/07 12:26:07;;;;;;;4.80;2.80;;;14.00;99.90;;;;;;5074725;28;20684;-57
2023/01/07 12:28:52;;;;;;;3.20;2.50;;;14.10;99.90;;;;;;5075599;28;20212;-56
2023/01/07 12:31:30;;;;;;;3.43;2.50;;;14.20;99.90;;;;;;5075771;28;20209;-58
2023/01/07 12:34:06;;;;;;;2.93;2.60;;;14.20;99.90;;;;;;5076572;28;20225;-56
2023/01/07 12:36:40;;;;;;;2.80;2.43;;;14.30;99.90;;;;;;5075465;28;20201;-56
2023/01/07 12:39:12;;;;;;;2.97;2.37;;;14.30;99.90;;;;;;5075454;28;20739;-56
2023/01/07 12:41:45;;;;;;;2.80;2.27;;;14.20;99.90;;;;;;5075313;28;20689;-55
2023/01/07 12:44:18;;;;;;;2.77;2.53;;;14.10;99.90;;;;;;5075403;28;20236;-56
2023/01/07 12:46:54;;;;;;;3.17;2.40;;;14.10;99.90;;;;;;5075447;28;20727;-55
2023/01/07 12:49:25;;;;;;;3.50;2.70;;;14.10;99.90;;;;;;5074800;28;20672;-55
2023/01/07 12:51:56;;;;;;;3.40;2.70;;;14.10;99.90;;;;;;5075027;28;20224;-55
2023/01/07 12:54:35;;;;;;;3.47;2.60;;;14.00;99.90;;;;;;5075310;28;20667;-55
2023/01/07 12:57:11;;;;;;;3.63;2.50;;;13.90;99.90;;;;;;5075725;28;20200;-57
2023/01/07 12:59:41;;;;;;;3.07;2.40;;;13.70;99.90;;;;;;5075288;28;20289;-57
2023/01/07 13:02:17;;;;;;;2.60;2.40;;;13.50;99.90;;;;;;5076146;28;20220;-57
2023/01/07 13:04:53;;;;;;;2.87;2.03;;;13.40;99.90;;;;;;5076534;28;20607;-57